createdAt,value
2018-08-04T00:00:26.272Z,2.50
2018-08-04T00:02:54.500Z,2.50
2018-08-04T00:05:22.821Z,2.30
2018-08-04T00:07:51.086Z,2.43
2018-08-04T00:10:20.743Z,2.37
2018-08-04T00:12:50.996Z,2.07
2018-08-04T00:15:19.475Z,2.27
2018-08-04T00:17:48.559Z,2.40
2018-08-04T00:20:17.057Z,2.60
2018-08-04T00:22:45.380Z,2.60
2018-08-04T00:25:13.677Z,2.40
2018-08-04T00:27:41.948Z,2.17
2018-08-04T00:30:12.052Z,2.60
2018-08-04T00:32:40.581Z,2.37
2018-08-04T00:35:09.493Z,2.97
2018-08-04T00:37:38.064Z,2.00
2018-08-04T00:40:07.908Z,2.13
2018-08-04T00:42:36.203Z,2.33
2018-08-04T00:45:06.085Z,2.60
2018-08-04T00:47:34.532Z,2.40
2018-08-04T00:50:02.995Z,2.30
2018-08-04T00:52:31.276Z,2.40
2018-08-04T00:54:59.501Z,2.30
2018-08-04T00:57:27.755Z,2.20
2018-08-04T00:59:56.440Z,2.30
2018-08-04T01:02:24.717Z,2.50
2018-08-04T01:04:52.992Z,2.70
2018-08-04T01:07:21.019Z,2.33
2018-08-04T01:09:49.288Z,2.37
2018-08-04T01:12:17.596Z,2.37
2018-08-04T01:14:45.892Z,2.23
2018-08-04T01:17:13.917Z,2.23
2018-08-04T01:19:42.155Z,2.30
2018-08-04T01:22:10.125Z,2.37
2018-08-04T01:24:38.465Z,2.43
2018-08-04T01:27:11.133Z,2.20
2018-08-04T01:29:39.524Z,2.30
2018-08-04T01:32:07.827Z,2.60
2018-08-04T01:34:36.109Z,2.30
2018-08-04T01:37:04.408Z,2.40
2018-08-04T01:39:32.653Z,2.20
2018-08-04T01:42:00.894Z,2.30
2018-08-04T01:44:29.159Z,2.23
2018-08-04T01:46:57.389Z,2.40
2018-08-04T01:49:25.679Z,2.40
2018-08-04T01:51:53.685Z,2.57
2018-08-04T01:54:21.949Z,2.47
2018-08-04T01:56:50.214Z,2.40
2018-08-04T01:59:20.169Z,2.70
2018-08-04T02:01:48.459Z,2.57
2018-08-04T02:04:16.716Z,2.53
2018-08-04T02:06:44.980Z,2.60
2018-08-04T02:09:16.052Z,2.57
2018-08-04T02:11:44.355Z,2.27
2018-08-04T02:14:12.624Z,2.60
2018-08-04T02:16:40.859Z,2.67
2018-08-04T02:19:09.159Z,2.50
2018-08-04T02:21:37.432Z,2.40
2018-08-04T02:24:05.803Z,2.37
2018-08-04T02:26:34.085Z,2.67
2018-08-04T02:29:02.369Z,2.20
2018-08-04T02:31:31.495Z,2.13
2018-08-04T02:33:59.764Z,2.10
2018-08-04T02:36:28.004Z,2.20
2018-08-04T02:38:56.294Z,2.23
2018-08-04T02:41:24.614Z,2.03
2018-08-04T02:43:52.860Z,2.07
2018-08-04T02:46:21.214Z,2.20
2018-08-04T02:48:49.500Z,2.30
2018-08-04T02:51:21.233Z,2.30
2018-08-04T02:53:49.544Z,2.40
2018-08-04T02:56:17.811Z,2.07
2018-08-04T02:58:46.068Z,2.37
2018-08-04T03:01:14.341Z,2.60
2018-08-04T03:03:42.600Z,2.30
2018-08-04T03:06:10.845Z,2.30
2018-08-04T03:08:39.187Z,2.10
2018-08-04T03:11:07.401Z,2.00
2018-08-04T03:13:35.713Z,2.37
2018-08-04T03:16:03.754Z,2.30
2018-08-04T03:18:32.003Z,1.90
2018-08-04T03:21:00.275Z,1.87
2018-08-04T03:23:29.246Z,2.20
2018-08-04T03:25:57.279Z,2.07
2018-08-04T03:28:25.567Z,2.30
2018-08-04T03:30:53.887Z,1.90
2018-08-04T03:33:27.286Z,2.47
2018-08-04T03:35:55.539Z,2.20
2018-08-04T03:38:23.794Z,2.40
2018-08-04T03:40:52.096Z,2.33
2018-08-04T03:43:20.348Z,2.30
2018-08-04T03:45:48.647Z,2.30
2018-08-04T03:48:16.955Z,2.17
2018-08-04T03:50:45.252Z,2.40
2018-08-04T03:53:13.532Z,2.23
2018-08-04T03:55:42.313Z,2.37
2018-08-04T03:58:10.619Z,2.60
2018-08-04T04:00:38.881Z,2.30
2018-08-04T04:03:07.156Z,2.20
2018-08-04T04:05:35.444Z,2.57
2018-08-04T04:08:03.760Z,2.30
2018-08-04T04:10:32.065Z,2.23
2018-08-04T04:13:00.057Z,1.90
2018-08-04T04:15:28.849Z,2.00
2018-08-04T04:17:57.112Z,2.33
2018-08-04T04:20:25.392Z,2.03
2018-08-04T04:22:53.701Z,1.97
2018-08-04T04:25:21.983Z,1.83
2018-08-04T04:27:50.280Z,2.10
2018-08-04T04:30:18.524Z,2.10
2018-08-04T04:32:46.734Z,1.93
2018-08-04T04:35:15.015Z,1.80
2018-08-04T04:37:43.283Z,2.23
2018-08-04T04:40:11.560Z,1.80
2018-08-04T04:42:39.837Z,1.87
2018-08-04T04:45:08.348Z,1.85
2018-08-04T04:47:36.588Z,2.60
2018-08-04T04:50:04.936Z,2.03
2018-08-04T04:52:33.270Z,2.00
2018-08-04T04:55:01.524Z,2.00
2018-08-04T04:57:33.638Z,1.67
2018-08-04T05:00:01.606Z,1.90
2018-08-04T05:02:29.601Z,2.03
2018-08-04T05:04:57.860Z,1.70
2018-08-04T05:07:25.885Z,1.80
2018-08-04T05:09:54.234Z,2.00
2018-08-04T05:12:22.439Z,1.50
2018-08-04T05:14:52.933Z,1.77
2018-08-04T05:17:21.189Z,1.77
2018-08-04T05:19:49.529Z,1.87
2018-08-04T05:22:17.854Z,1.60
2018-08-04T05:24:45.841Z,2.20
2018-08-04T05:27:14.150Z,2.10
2018-08-04T05:29:42.505Z,1.97
2018-08-04T05:32:10.752Z,1.77
2018-08-04T05:34:38.731Z,1.80
2018-08-04T05:37:07.068Z,1.73
2018-08-04T05:39:35.541Z,1.97
2018-08-04T05:42:03.833Z,2.00
2018-08-04T05:44:32.081Z,1.70
2018-08-04T05:47:00.353Z,1.90
2018-08-04T05:49:28.615Z,1.67
2018-08-04T05:51:57.563Z,1.87
2018-08-04T05:54:25.864Z,1.50
2018-08-04T05:56:54.142Z,2.00
2018-08-04T05:59:23.169Z,2.00
2018-08-04T06:01:52.125Z,1.60
2018-08-04T06:04:20.375Z,1.70
2018-08-04T06:06:48.601Z,1.53
2018-08-04T06:09:16.816Z,1.77
2018-08-04T06:11:45.154Z,1.80
2018-08-04T06:14:13.404Z,1.90
2018-08-04T06:16:41.674Z,1.60
2018-08-04T06:19:09.939Z,1.83
2018-08-04T06:21:38.213Z,1.90
2018-08-04T06:24:06.520Z,1.87
2018-08-04T06:26:34.816Z,2.13
2018-08-04T06:29:03.073Z,2.00
2018-08-04T06:31:31.349Z,2.07
2018-08-04T06:33:59.723Z,1.73
2018-08-04T06:36:27.949Z,2.40
2018-08-04T06:38:55.985Z,1.63
2018-08-04T06:41:24.330Z,1.87
2018-08-04T06:43:54.300Z,1.80
2018-08-04T06:46:22.584Z,1.70
2018-08-04T06:48:50.923Z,1.87
2018-08-04T06:51:19.202Z,1.90
2018-08-04T06:53:48.300Z,2.30
2018-08-04T06:56:16.586Z,1.80
2018-08-04T06:58:44.838Z,2.00
2018-08-04T07:01:13.130Z,2.13
2018-08-04T07:03:46.987Z,2.20
2018-08-04T07:06:15.584Z,1.93
2018-08-04T07:08:43.854Z,2.40
2018-08-04T07:11:12.180Z,1.87
2018-08-04T07:13:40.551Z,1.83
2018-08-04T07:16:08.768Z,1.93
2018-08-04T07:18:37.021Z,1.80
2018-08-04T07:21:05.703Z,2.10
2018-08-04T07:23:33.678Z,2.20
2018-08-04T07:26:02.115Z,1.70
2018-08-04T07:28:30.352Z,1.90
2018-08-04T07:30:58.711Z,1.70
2018-08-04T07:33:26.949Z,1.93
2018-08-04T07:35:55.348Z,1.60
2018-08-04T07:38:23.292Z,1.90
2018-08-04T07:40:51.519Z,1.70
2018-08-04T07:43:19.795Z,1.90
2018-08-04T07:45:48.316Z,1.77
2018-08-04T07:48:16.590Z,1.87
2018-08-04T07:50:44.835Z,1.90
2018-08-04T07:53:13.132Z,2.10
2018-08-04T07:55:41.424Z,1.83
2018-08-04T07:58:09.700Z,1.90
2018-08-04T08:00:37.954Z,2.00
2018-08-04T08:03:06.297Z,1.80
2018-08-04T08:05:34.501Z,1.90
2018-08-04T08:08:02.804Z,1.90
2018-08-04T08:10:31.210Z,1.80
2018-08-04T08:12:59.363Z,2.00
2018-08-04T08:15:27.675Z,1.90
2018-08-04T08:17:56.995Z,1.90
2018-08-04T08:20:25.302Z,1.90
2018-08-04T08:22:54.203Z,2.13
2018-08-04T08:25:22.516Z,2.00
2018-08-04T08:27:50.772Z,1.80
2018-08-04T08:30:18.979Z,1.93
2018-08-04T08:32:47.324Z,2.00
2018-08-04T08:35:15.248Z,2.30
2018-08-04T08:37:43.528Z,2.10
2018-08-04T08:40:13.018Z,1.80
2018-08-04T08:42:41.304Z,2.10
2018-08-04T08:45:10.264Z,1.90
2018-08-04T08:47:38.660Z,2.20
2018-08-04T08:50:10.019Z,1.90
2018-08-04T08:52:38.107Z,2.20
2018-08-04T08:55:06.813Z,1.70
2018-08-04T08:57:35.054Z,1.87
2018-08-04T09:00:05.464Z,1.90
2018-08-04T09:02:33.770Z,2.00
2018-08-04T09:05:02.023Z,2.17
2018-08-04T09:07:30.269Z,1.90
2018-08-04T09:10:00.565Z,1.90
2018-08-04T09:12:28.944Z,2.00
2018-08-04T09:14:57.242Z,1.63
2018-08-04T09:17:25.464Z,1.70
2018-08-04T09:19:53.692Z,1.73
2018-08-04T09:22:21.972Z,1.80
2018-08-04T09:24:50.619Z,1.90
2018-08-04T09:27:18.888Z,2.00
2018-08-04T09:29:47.512Z,1.80
2018-08-04T09:32:15.822Z,1.87
2018-08-04T09:34:44.036Z,1.53
2018-08-04T09:37:12.292Z,1.63
2018-08-04T09:39:40.329Z,1.50
2018-08-04T09:42:08.738Z,1.80
2018-08-04T09:44:36.988Z,1.77
2018-08-04T09:47:05.348Z,1.50
2018-08-04T09:49:33.620Z,1.77
2018-08-04T09:52:01.890Z,1.33
2018-08-04T09:54:30.299Z,1.63
2018-08-04T09:56:58.563Z,1.40
2018-08-04T09:59:28.172Z,1.87
2018-08-04T10:02:01.841Z,1.97
2018-08-04T10:04:29.854Z,1.77
2018-08-04T10:06:58.135Z,1.67
2018-08-04T10:09:26.408Z,1.60
2018-08-04T10:11:54.676Z,1.83
2018-08-04T10:14:22.897Z,1.50
2018-08-04T10:16:51.321Z,1.63
2018-08-04T10:19:19.581Z,1.30
2018-08-04T10:21:47.819Z,1.70
2018-08-04T10:24:17.224Z,1.47
2018-08-04T10:26:45.635Z,1.47
2018-08-04T10:29:13.951Z,1.70
2018-08-04T10:31:42.325Z,1.70
2018-08-04T10:34:11.336Z,1.90
2018-08-04T10:36:39.599Z,1.90
2018-08-04T10:39:09.439Z,1.40
2018-08-04T10:41:37.707Z,1.73
2018-08-04T10:44:06.333Z,1.40
2018-08-04T10:46:34.446Z,1.43
2018-08-04T10:49:02.753Z,1.30
2018-08-04T10:51:31.016Z,1.43
2018-08-04T10:53:59.303Z,1.30
2018-08-04T10:56:27.947Z,1.53
2018-08-04T10:58:56.237Z,1.53
2018-08-04T11:01:24.492Z,1.33
2018-08-04T11:03:52.949Z,1.20
2018-08-04T11:06:21.616Z,1.30
2018-08-04T11:08:49.948Z,1.10
2018-08-04T11:11:18.285Z,1.53
2018-08-04T11:13:46.520Z,1.10
2018-08-04T11:16:15.971Z,1.40
2018-08-04T11:18:44.215Z,1.20
2018-08-04T11:21:12.587Z,1.40
2018-08-04T11:23:40.580Z,1.57
2018-08-04T11:26:08.876Z,1.40
2018-08-04T11:28:36.956Z,1.07
2018-08-04T11:31:05.243Z,1.80
2018-08-04T11:33:33.214Z,1.20
2018-08-04T11:36:01.470Z,1.37
2018-08-04T11:38:29.825Z,1.20
2018-08-04T11:40:58.127Z,1.10
2018-08-04T11:43:26.345Z,1.20
2018-08-04T11:45:54.604Z,1.20
2018-08-04T11:48:22.857Z,1.20
2018-08-04T11:50:50.978Z,1.20
2018-08-04T11:53:19.260Z,1.00
2018-08-04T11:55:47.499Z,1.20
2018-08-04T11:58:15.802Z,1.13
2018-08-04T12:00:44.096Z,1.20
2018-08-04T12:03:12.372Z,1.20
2018-08-04T12:05:40.689Z,1.10
2018-08-04T12:08:09.024Z,1.03
2018-08-04T12:10:37.679Z,1.13
2018-08-04T12:13:06.022Z,0.97
2018-08-04T12:15:34.263Z,1.10
2018-08-04T12:18:02.582Z,1.20
2018-08-04T12:20:31.173Z,1.30
2018-08-04T12:22:59.497Z,1.30
2018-08-04T12:25:27.795Z,1.10
2018-08-04T12:27:56.006Z,1.07
2018-08-04T12:30:25.697Z,1.20
2018-08-04T12:32:53.950Z,1.07
2018-08-04T12:35:22.206Z,0.90
2018-08-04T12:37:50.556Z,1.10
2018-08-04T12:40:18.571Z,1.00
2018-08-04T12:42:46.899Z,1.00
2018-08-04T12:45:15.195Z,1.20
2018-08-04T12:47:43.190Z,1.00
2018-08-04T12:50:11.423Z,1.20
2018-08-04T12:52:39.773Z,1.20
2018-08-04T12:55:08.138Z,1.30
2018-08-04T12:57:36.507Z,1.00
2018-08-04T13:00:06.224Z,1.40
2018-08-04T13:02:34.513Z,1.43
2018-08-04T13:05:02.831Z,1.20
2018-08-04T13:07:31.098Z,1.17
2018-08-04T13:09:59.350Z,1.83
2018-08-04T13:12:29.946Z,1.00
2018-08-04T13:14:58.244Z,1.07
2018-08-04T13:17:26.680Z,1.23
2018-08-04T13:19:55.508Z,1.07
2018-08-04T13:22:24.315Z,1.00
2018-08-04T13:24:52.707Z,1.00
2018-08-04T13:27:21.005Z,0.80
2018-08-04T13:29:50.029Z,0.87
2018-08-04T13:32:18.235Z,0.70
2018-08-04T13:34:46.463Z,0.90
2018-08-04T13:37:14.791Z,1.10
2018-08-04T13:39:42.747Z,0.97
2018-08-04T13:42:11.006Z,1.03
2018-08-04T13:44:39.368Z,1.00
2018-08-04T13:47:07.711Z,1.00
2018-08-04T13:49:36.601Z,1.20
2018-08-04T13:52:04.830Z,1.00
2018-08-04T13:54:33.591Z,1.10
2018-08-04T13:57:01.946Z,1.10
2018-08-04T13:59:31.529Z,1.00
2018-08-04T14:01:59.768Z,1.00
2018-08-04T14:04:28.045Z,1.00
2018-08-04T14:06:56.315Z,1.20
2018-08-04T14:09:24.562Z,1.00
2018-08-04T14:11:52.809Z,1.10
2018-08-04T14:14:21.063Z,0.80
2018-08-04T14:16:49.333Z,0.80
2018-08-04T14:19:17.603Z,1.47
2018-08-04T14:21:45.844Z,1.07
2018-08-04T14:24:14.078Z,0.97
2018-08-04T14:26:42.072Z,0.70
2018-08-04T14:29:10.348Z,1.00
2018-08-04T14:31:38.713Z,0.93
2018-08-04T14:34:06.953Z,0.93
2018-08-04T14:36:35.819Z,0.90
2018-08-04T14:39:06.542Z,1.00
2018-08-04T14:41:34.880Z,0.90
2018-08-04T14:44:02.883Z,0.77
2018-08-04T14:46:31.192Z,0.80
2018-08-04T14:48:59.464Z,0.90
2018-08-04T14:51:27.700Z,0.63
2018-08-04T14:53:55.985Z,0.83
2018-08-04T14:56:24.253Z,1.00
2018-08-04T14:58:52.527Z,0.90
2018-08-04T15:01:21.312Z,0.77
2018-08-04T15:03:49.552Z,0.90
2018-08-04T15:06:17.814Z,0.80
2018-08-04T15:08:46.515Z,0.73
2018-08-04T15:11:14.806Z,0.70
2018-08-04T15:13:43.127Z,0.70
2018-08-04T15:16:11.667Z,1.00
2018-08-04T15:18:41.232Z,0.80
2018-08-04T15:21:12.140Z,0.73
2018-08-04T15:23:40.977Z,0.83
2018-08-04T15:26:09.231Z,0.90
2018-08-04T15:28:40.732Z,0.90
2018-08-04T15:31:08.975Z,0.80
2018-08-04T15:33:37.266Z,0.87
2018-08-04T15:36:05.832Z,1.00
2018-08-04T15:38:34.122Z,1.00
2018-08-04T15:41:02.410Z,0.80
2018-08-04T15:43:30.897Z,0.73
2018-08-04T15:45:59.196Z,0.77
2018-08-04T15:48:27.561Z,0.83
2018-08-04T15:51:02.728Z,0.83
2018-08-04T15:53:31.015Z,0.80
2018-08-04T15:55:59.268Z,0.73
2018-08-04T15:58:27.603Z,1.00
2018-08-04T16:00:55.582Z,0.80
2018-08-04T16:03:23.839Z,0.80
2018-08-04T16:05:52.072Z,0.70
2018-08-04T16:08:20.401Z,1.10
2018-08-04T16:10:48.675Z,1.00
2018-08-04T16:13:16.639Z,0.70
2018-08-04T16:15:44.611Z,0.97
2018-08-04T16:18:12.575Z,0.83
2018-08-04T16:20:40.836Z,1.10
2018-08-04T16:23:09.059Z,1.00
2018-08-04T16:25:37.316Z,1.00
2018-08-04T16:28:05.275Z,1.00
2018-08-04T16:30:33.539Z,1.00
2018-08-04T16:33:01.826Z,1.10
2018-08-04T16:35:30.035Z,1.17
2018-08-04T16:37:58.326Z,1.00
2018-08-04T16:40:26.594Z,0.90
2018-08-04T16:42:54.596Z,1.00
2018-08-04T16:45:22.889Z,0.83
2018-08-04T16:47:51.136Z,0.80
2018-08-04T16:50:19.420Z,0.83
2018-08-04T16:52:51.539Z,1.00
2018-08-04T16:55:19.775Z,0.83
2018-08-04T16:57:48.030Z,0.90
2018-08-04T17:00:16.294Z,0.97
2018-08-04T17:02:44.534Z,1.00
2018-08-04T17:05:12.828Z,1.00
2018-08-04T17:07:41.112Z,0.90
2018-08-04T17:10:09.377Z,1.03
2018-08-04T17:12:37.667Z,1.00
2018-08-04T17:15:05.710Z,1.00
2018-08-04T17:17:34.007Z,0.90
2018-08-04T17:20:02.440Z,1.10
2018-08-04T17:22:30.662Z,0.80
2018-08-04T17:24:58.929Z,1.00
2018-08-04T17:27:27.185Z,1.20
2018-08-04T17:29:55.576Z,0.90
2018-08-04T17:32:23.791Z,0.97
2018-08-04T17:34:52.702Z,1.00
2018-08-04T17:37:21.177Z,1.00
2018-08-04T17:39:49.475Z,1.00
2018-08-04T17:42:17.745Z,1.40
2018-08-04T17:44:46.037Z,1.00
2018-08-04T17:47:14.273Z,1.00
2018-08-04T17:49:42.269Z,0.90
2018-08-04T17:52:10.539Z,1.10
2018-08-04T17:54:38.997Z,0.80
2018-08-04T17:57:07.079Z,1.00
2018-08-04T17:59:35.792Z,1.23
2018-08-04T18:02:04.179Z,1.30
2018-08-04T18:04:32.416Z,0.70
2018-08-04T18:07:00.660Z,1.00
2018-08-04T18:09:28.940Z,1.10
2018-08-04T18:11:57.200Z,0.90
2018-08-04T18:14:25.473Z,1.13
2018-08-04T18:16:53.732Z,1.07
2018-08-04T18:19:21.993Z,0.90
2018-08-04T18:21:50.251Z,0.90
2018-08-04T18:24:18.524Z,0.73
2018-08-04T18:26:46.783Z,0.97
2018-08-04T18:29:16.355Z,1.10
2018-08-04T18:31:44.634Z,1.10
2018-08-04T18:34:12.932Z,1.07
2018-08-04T18:36:41.198Z,1.00
2018-08-04T18:39:10.193Z,0.70
2018-08-04T18:41:38.447Z,1.00
2018-08-04T18:44:06.780Z,0.80
2018-08-04T18:46:35.059Z,0.97
2018-08-04T18:49:04.979Z,0.90
2018-08-04T18:51:33.310Z,1.00
2018-08-04T18:54:01.554Z,0.80
2018-08-04T18:56:29.785Z,1.10
2018-08-04T18:58:58.037Z,0.80
2018-08-04T19:01:26.307Z,1.00
2018-08-04T19:03:54.521Z,1.13
2018-08-04T19:06:22.814Z,0.90
2018-08-04T19:08:51.127Z,0.90
2018-08-04T19:11:19.388Z,1.00
2018-08-04T19:13:47.603Z,1.30
2018-08-04T19:16:15.843Z,1.00
2018-08-04T19:18:43.841Z,1.00
2018-08-04T19:21:12.112Z,1.17
2018-08-04T19:23:40.383Z,0.93
2018-08-04T19:26:08.645Z,1.10
2018-08-04T19:28:36.910Z,1.10
2018-08-04T19:31:06.220Z,1.10
2018-08-04T19:33:34.613Z,0.90
2018-08-04T19:36:02.886Z,0.83
2018-08-04T19:38:31.142Z,0.90
2018-08-04T19:40:59.421Z,1.20
2018-08-04T19:43:28.466Z,1.00
2018-08-04T19:45:56.705Z,1.10
2018-08-04T19:48:25.882Z,1.30
2018-08-04T19:50:54.131Z,1.17
2018-08-04T19:53:22.423Z,1.00
2018-08-04T19:55:50.697Z,1.20
2018-08-04T19:58:18.963Z,1.10
2018-08-04T20:00:47.220Z,1.20
2018-08-04T20:03:15.654Z,1.43
2018-08-04T20:05:43.634Z,1.00
2018-08-04T20:08:11.986Z,1.10
2018-08-04T20:10:40.322Z,0.97
2018-08-04T20:13:09.233Z,0.90
2018-08-04T20:15:37.503Z,0.90
2018-08-04T20:18:05.751Z,1.07
2018-08-04T20:20:33.983Z,1.23
2018-08-04T20:23:01.955Z,1.00
2018-08-04T20:25:30.205Z,1.27
2018-08-04T20:27:58.458Z,1.40
2018-08-04T20:30:26.701Z,1.10
2018-08-04T20:32:54.962Z,1.17
2018-08-04T20:35:22.964Z,1.03
2018-08-04T20:37:51.328Z,1.00
2018-08-04T20:40:19.588Z,0.93
2018-08-04T20:42:47.612Z,1.10
2018-08-04T20:45:16.255Z,1.00
2018-08-04T20:47:44.488Z,1.43
2018-08-04T20:50:12.852Z,1.50
2018-08-04T20:52:41.089Z,2.07
2018-08-04T20:55:09.376Z,1.40
2018-08-04T20:57:37.659Z,1.30
2018-08-04T21:00:06.009Z,1.30
2018-08-04T21:02:34.016Z,1.40
2018-08-04T21:05:02.318Z,1.47
2018-08-04T21:07:30.595Z,1.40
2018-08-04T21:09:58.852Z,1.20
2018-08-04T21:12:27.060Z,1.20
2018-08-04T21:14:55.349Z,1.23
2018-08-04T21:17:23.358Z,1.20
2018-08-04T21:19:54.650Z,1.13
2018-08-04T21:22:22.905Z,1.23
2018-08-04T21:24:51.228Z,1.20
2018-08-04T21:27:20.985Z,1.30
2018-08-04T21:29:49.549Z,1.37
2018-08-04T21:32:17.781Z,1.20
2018-08-04T21:34:46.054Z,1.37
2018-08-04T21:37:14.267Z,1.30
2018-08-04T21:39:42.535Z,1.30
2018-08-04T21:42:10.498Z,1.30
2018-08-04T21:44:38.791Z,1.17
2018-08-04T21:47:07.017Z,1.10
2018-08-04T21:49:35.347Z,1.23
2018-08-04T21:52:03.592Z,1.20
2018-08-04T21:54:31.821Z,1.30
2018-08-04T21:57:00.055Z,1.10
2018-08-04T21:59:30.074Z,1.33
2018-08-04T22:01:58.406Z,1.20
2018-08-04T22:04:26.966Z,1.03
2018-08-04T22:08:04.380Z,1.00
2018-08-04T22:10:32.637Z,1.00
2018-08-04T22:13:00.964Z,2.00
2018-08-04T22:15:28.919Z,1.00
2018-08-04T22:17:57.223Z,1.07
2018-08-04T22:20:26.153Z,1.10
2018-08-04T22:22:54.529Z,0.90
2018-08-04T22:25:27.257Z,1.10
2018-08-04T22:27:56.256Z,1.30
2018-08-04T22:30:24.909Z,1.10
2018-08-04T22:32:53.283Z,1.23
2018-08-04T22:35:22.053Z,0.90
2018-08-04T22:37:50.317Z,1.17
2018-08-04T22:40:19.670Z,1.20
2018-08-04T22:42:47.947Z,1.07
2018-08-04T22:46:19.893Z,1.13
2018-08-04T22:48:49.383Z,1.03
2018-08-04T22:51:29.795Z,1.10
2018-08-04T22:53:58.104Z,1.20
2018-08-04T22:56:26.641Z,1.10
2018-08-04T22:58:54.846Z,0.90
2018-08-04T23:01:23.108Z,0.90
2018-08-04T23:03:51.414Z,1.20
2018-08-04T23:06:19.655Z,1.10
2018-08-04T23:08:47.898Z,1.20
2018-08-04T23:11:16.186Z,0.97
2018-08-04T23:13:44.444Z,1.33
2018-08-04T23:16:12.671Z,1.00
2018-08-04T23:18:40.960Z,1.10
2018-08-04T23:21:09.180Z,1.00
2018-08-04T23:23:37.375Z,1.00
2018-08-04T23:26:05.860Z,1.10
2018-08-04T23:28:34.135Z,1.10
2018-08-04T23:31:02.448Z,1.00
2018-08-04T23:33:34.421Z,1.10
2018-08-04T23:36:02.672Z,1.20
2018-08-04T23:38:30.904Z,0.90
2018-08-04T23:40:59.175Z,1.03
2018-08-04T23:43:27.392Z,1.30
2018-08-04T23:45:55.650Z,1.10
2018-08-04T23:48:23.659Z,1.00
2018-08-04T23:50:52.061Z,0.87
2018-08-04T23:53:20.325Z,1.10
2018-08-04T23:55:48.579Z,1.20
2018-08-04T23:58:16.836Z,1.10
